Time;durP1;ratioP1;P1;durP2;ratioP2;P2;SDS_P1;SDS_P2;PMS_P1;PMS_P2;Temp;Humidity;BMP_temperature;BMP_pressure;BME280_temperature;BME280_humidity;BME280_pressure;Samples;Min_cycle;Max_cycle;Signal;HPM_P1;HPM_P2
2023/09/09 00:01:09;;;;;;;11.20;10.20;;;20.80;99.90;;;;;;10256375;28;20201;-79
2023/09/09 00:06:12;;;;;;;12.33;11.40;;;20.80;99.90;;;;;;10257774;28;20737;-78
2023/09/09 00:11:14;;;;;;;12.50;11.40;;;20.80;99.90;;;;;;10256318;28;20210;-79
2023/09/09 00:16:17;;;;;;;11.10;10.20;;;20.70;99.90;;;;;;10259894;28;20217;-79
2023/09/09 00:21:20;;;;;;;11.00;10.10;;;20.70;99.90;;;;;;10255889;28;20227;-78
2023/09/09 00:26:22;;;;;;;11.30;10.40;;;20.70;99.90;;;;;;10257093;28;20229;-79
2023/09/09 00:31:26;;;;;;;11.13;10.03;;;20.60;99.90;;;;;;10322253;28;20670;-79
2023/09/09 00:36:28;;;;;;;12.40;11.30;;;20.60;99.90;;;;;;10256074;28;20233;-79
2023/09/09 00:41:30;;;;;;;11.17;10.27;;;20.50;99.90;;;;;;10304360;28;20201;-79
2023/09/09 00:46:34;;;;;;;10.20;9.30;;;20.50;99.90;;;;;;10257778;28;20276;-79
2023/09/09 00:51:37;;;;;;;10.67;9.87;;;20.50;99.90;;;;;;10362508;28;20758;-79
2023/09/09 00:56:39;;;;;;;11.07;10.17;;;20.50;99.90;;;;;;10383181;28;20213;-79
2023/09/09 01:01:44;;;;;;;11.90;10.70;;;20.50;99.90;;;;;;10317385;28;20197;-78
2023/09/09 01:06:46;;;;;;;11.87;10.87;;;20.40;99.90;;;;;;10255273;28;20252;-79
2023/09/09 01:11:48;;;;;;;10.30;9.40;;;20.40;99.90;;;;;;10323337;28;20213;-78
2023/09/09 01:16:53;;;;;;;11.67;10.50;;;20.40;99.90;;;;;;10258431;28;20224;-78
2023/09/09 01:22:00;;;;;;;11.33;10.43;;;20.40;99.90;;;;;;10261639;28;20202;-78
2023/09/09 01:27:04;;;;;;;11.20;10.30;;;20.40;99.90;;;;;;10334461;28;20223;-78
2023/09/09 01:32:06;;;;;;;11.63;10.67;;;20.30;99.90;;;;;;10275689;28;20240;-78
2023/09/09 01:37:08;;;;;;;11.33;10.33;;;20.30;99.90;;;;;;10341023;28;20675;-78
2023/09/09 01:42:12;;;;;;;11.50;10.60;;;20.30;99.90;;;;;;10337546;28;20201;-79
2023/09/09 01:47:14;;;;;;;12.53;11.43;;;20.30;99.90;;;;;;10252693;28;20234;-78
2023/09/09 01:52:17;;;;;;;10.70;9.90;;;20.30;99.90;;;;;;10315332;28;20217;-79
2023/09/09 01:57:23;;;;;;;11.83;10.83;;;20.20;99.90;;;;;;10314894;28;20237;-79
2023/09/09 02:02:25;;;;;;;12.40;11.50;;;20.20;99.90;;;;;;10318882;28;20231;-79
2023/09/09 02:07:28;;;;;;;10.77;9.97;;;20.20;99.90;;;;;;10316862;28;20233;-79
2023/09/09 02:12:31;;;;;;;11.87;10.67;;;20.20;99.90;;;;;;10316196;28;20693;-78
2023/09/09 02:17:36;;;;;;;11.93;10.90;;;20.10;99.90;;;;;;10315257;28;20233;-79
2023/09/09 02:22:38;;;;;;;11.63;10.50;;;20.10;99.90;;;;;;10247475;28;20410;-79
2023/09/09 02:27:42;;;;;;;11.43;10.47;;;20.10;99.90;;;;;;10255180;28;20221;-78
2023/09/09 02:32:44;;;;;;;12.70;10.33;;;20.10;99.90;;;;;;10332625;28;20228;-78
2023/09/09 02:37:47;;;;;;;11.57;10.57;;;20.10;99.90;;;;;;10321223;28;20604;-78
2023/09/09 02:42:50;;;;;;;12.47;11.43;;;20.10;99.90;;;;;;10314152;28;20197;-79
2023/09/09 02:47:52;;;;;;;12.07;10.97;;;20.10;99.90;;;;;;10317872;28;20249;-78
2023/09/09 02:52:56;;;;;;;12.20;11.07;;;20.00;99.90;;;;;;10315993;28;20220;-78
2023/09/09 02:57:59;;;;;;;11.97;10.93;;;20.00;99.90;;;;;;10314669;28;20278;-79
2023/09/09 03:03:02;;;;;;;12.40;11.20;;;20.00;99.90;;;;;;10318334;28;20232;-79
2023/09/09 03:08:05;;;;;;;12.80;11.70;;;20.00;99.90;;;;;;10311076;28;20233;-78
2023/09/09 03:13:09;;;;;;;12.70;11.80;;;19.90;99.90;;;;;;10315414;28;20206;-79
2023/09/09 03:18:11;;;;;;;12.40;11.30;;;19.90;99.90;;;;;;10313013;28;20642;-78
2023/09/09 03:23:17;;;;;;;14.00;12.57;;;19.90;99.90;;;;;;10319719;28;20694;-79
2023/09/09 03:28:20;;;;;;;12.60;11.30;;;19.90;99.90;;;;;;10320489;28;20233;-78
2023/09/09 03:33:23;;;;;;;11.93;11.03;;;19.90;99.90;;;;;;10320878;28;20208;-78
2023/09/09 03:38:25;;;;;;;13.03;11.90;;;19.80;99.90;;;;;;10320458;28;20624;-78
2023/09/09 03:43:29;;;;;;;11.93;10.93;;;19.80;99.90;;;;;;10319737;28;20251;-79
2023/09/09 03:48:32;;;;;;;12.90;11.80;;;19.80;99.90;;;;;;10319310;28;20221;-78
2023/09/09 03:53:34;;;;;;;11.40;10.47;;;19.80;99.90;;;;;;10316804;28;20193;-79
2023/09/09 03:58:38;;;;;;;12.73;11.60;;;19.80;99.90;;;;;;10315292;28;20308;-79
2023/09/09 04:03:41;;;;;;;12.60;11.33;;;19.80;99.90;;;;;;10317866;28;20206;-79
2023/09/09 04:08:47;;;;;;;13.97;12.77;;;19.70;99.90;;;;;;10322144;28;20217;-79
2023/09/09 04:13:52;;;;;;;13.47;12.30;;;19.70;99.90;;;;;;10302818;28;20251;-78
2023/09/09 04:18:54;;;;;;;12.73;11.63;;;19.60;99.90;;;;;;10321042;28;20217;-78
2023/09/09 04:23:56;;;;;;;12.67;11.57;;;19.60;99.90;;;;;;10300180;28;20296;-79
2023/09/09 04:29:02;;;;;;;13.07;11.93;;;19.60;99.90;;;;;;10315687;28;20226;-79
2023/09/09 04:34:04;;;;;;;12.57;11.50;;;19.60;99.90;;;;;;10319470;28;20209;-78
2023/09/09 04:39:06;;;;;;;12.47;11.50;;;19.60;99.90;;;;;;10315983;28;20225;-79
2023/09/09 04:44:10;;;;;;;11.07;10.10;;;19.60;99.90;;;;;;10318019;28;20248;-79
2023/09/09 04:49:17;;;;;;;13.93;12.53;;;19.60;99.90;;;;;;10318460;28;20267;-79
2023/09/09 04:54:19;;;;;;;13.57;12.37;;;19.60;99.90;;;;;;10319488;28;20204;-78
2023/09/09 04:59:23;;;;;;;11.67;10.67;;;19.60;99.90;;;;;;10318797;28;20193;-78
2023/09/09 05:04:25;;;;;;;12.47;11.37;;;19.60;99.90;;;;;;10296072;28;20206;-78
2023/09/09 05:09:27;;;;;;;12.60;11.40;;;19.60;99.90;;;;;;10254855;28;20289;-79
2023/09/09 05:14:31;;;;;;;13.47;12.27;;;19.60;99.90;;;;;;10316959;28;20637;-78
2023/09/09 05:19:33;;;;;;;13.47;12.27;;;19.60;99.90;;;;;;10315528;28;20205;-79
2023/09/09 05:24:36;;;;;;;13.57;12.17;;;19.60;99.90;;;;;;10298873;28;20237;-78
2023/09/09 05:29:40;;;;;;;13.60;12.40;;;19.60;99.90;;;;;;10215135;28;20210;-79
2023/09/09 05:34:42;;;;;;;13.23;12.13;;;19.60;99.90;;;;;;10294582;28;20630;-78
2023/09/09 05:39:45;;;;;;;12.33;11.37;;;19.60;99.90;;;;;;10251445;29;20209;-79
2023/09/09 05:44:48;;;;;;;12.87;11.70;;;19.60;99.90;;;;;;10252078;28;20225;-79
2023/09/09 05:49:51;;;;;;;13.53;12.40;;;19.70;99.90;;;;;;10318723;28;20251;-79
2023/09/09 05:54:53;;;;;;;12.90;11.90;;;19.80;99.90;;;;;;10318841;28;20303;-79
2023/09/09 05:59:57;;;;;;;13.33;12.10;;;19.80;99.90;;;;;;10251844;28;20388;-78
2023/09/09 06:04:59;;;;;;;12.80;11.60;;;19.90;99.90;;;;;;10319507;28;20248;-79
2023/09/09 06:10:01;;;;;;;12.77;11.50;;;19.90;99.90;;;;;;10318952;28;20220;-79
2023/09/09 06:15:05;;;;;;;12.50;11.33;;;19.90;99.90;;;;;;10252325;28;20213;-79
2023/09/09 06:20:09;;;;;;;12.90;11.80;;;20.00;99.90;;;;;;10319208;28;20211;-79
2023/09/09 06:25:12;;;;;;;12.70;11.50;;;20.00;99.90;;;;;;10318510;28;20663;-79
2023/09/09 06:30:19;;;;;;;16.17;12.33;;;20.10;99.90;;;;;;10317423;28;20285;-79
2023/09/09 06:35:22;;;;;;;12.97;11.77;;;20.10;99.90;;;;;;10251482;28;20224;-79
2023/09/09 06:40:24;;;;;;;12.37;11.20;;;20.10;99.90;;;;;;10318693;28;20263;-79
2023/09/09 06:45:28;;;;;;;13.97;12.70;;;20.10;99.90;;;;;;10252135;28;20225;-79
2023/09/09 06:50:30;;;;;;;12.63;11.53;;;20.20;99.90;;;;;;10251669;28;20208;-79
2023/09/09 06:55:33;;;;;;;13.87;12.57;;;20.30;99.90;;;;;;10254387;28;20229;-79
2023/09/09 07:00:37;;;;;;;12.30;11.20;;;20.40;99.90;;;;;;10259154;28;20202;-79
2023/09/09 07:05:40;;;;;;;15.70;13.97;;;20.40;99.90;;;;;;10260207;28;20253;-79
2023/09/09 07:10:49;;;;;;;13.77;12.47;;;20.50;99.90;;;;;;10343617;28;20260;-79
2023/09/09 07:15:53;;;;;;;13.33;12.23;;;20.60;99.90;;;;;;10262894;28;20210;-79
2023/09/09 07:20:57;;;;;;;12.03;10.93;;;20.70;99.90;;;;;;10324619;28;20208;-79
2023/09/09 07:26:00;;;;;;;13.57;11.77;;;20.70;99.90;;;;;;10324825;28;20236;-79
2023/09/09 07:31:04;;;;;;;12.67;11.47;;;20.80;99.90;;;;;;10257466;28;20209;-79
2023/09/09 07:36:06;;;;;;;12.83;11.63;;;20.90;99.90;;;;;;10258298;28;20248;-79
2023/09/09 07:41:08;;;;;;;12.67;11.57;;;20.90;99.90;;;;;;10260970;28;20667;-80
2023/09/09 07:46:12;;;;;;;13.93;12.77;;;21.00;99.90;;;;;;10263940;28;20311;-79
2023/09/09 07:51:14;;;;;;;12.57;11.47;;;21.10;99.90;;;;;;10260182;28;20201;-79
2023/09/09 07:56:16;;;;;;;13.67;12.40;;;21.20;99.90;;;;;;10323446;28;20710;-79
2023/09/09 08:01:20;;;;;;;13.07;11.70;;;21.40;99.90;;;;;;10321200;28;20198;-80
2023/09/09 08:06:22;;;;;;;12.33;11.30;;;21.50;99.90;;;;;;10322366;28;20228;-79
2023/09/09 08:11:24;;;;;;;11.63;10.63;;;21.60;99.90;;;;;;10319178;28;20205;-80
2023/09/09 08:16:28;;;;;;;13.50;12.20;;;21.70;99.90;;;;;;10253067;28;20218;-80
2023/09/09 08:21:30;;;;;;;14.87;13.53;;;21.80;99.90;;;;;;10256351;28;20220;-79
2023/09/09 08:26:32;;;;;;;12.60;11.40;;;21.90;99.90;;;;;;10319109;28;20221;-79
2023/09/09 08:31:36;;;;;;;12.50;11.40;;;22.00;99.90;;;;;;10252344;28;20201;-79
2023/09/09 08:36:38;;;;;;;10.70;9.80;;;22.10;99.90;;;;;;10249750;28;20209;-80
2023/09/09 08:41:53;;;;;;;11.90;10.93;;;22.20;99.90;;;;;;10252776;29;20251;-79
2023/09/09 08:46:57;;;;;;;11.60;10.60;;;22.30;99.90;;;;;;10320318;28;20232;-79
2023/09/09 08:52:04;;;;;;;17.83;12.07;;;22.30;99.90;;;;;;10257064;28;20210;-79
2023/09/09 08:57:06;;;;;;;11.90;10.87;;;22.40;99.90;;;;;;10255532;28;20221;-79
2023/09/09 09:02:11;;;;;;;10.93;10.03;;;22.50;99.90;;;;;;10255635;28;20209;-79
2023/09/09 09:07:14;;;;;;;11.30;10.40;;;22.60;99.90;;;;;;10255282;28;20225;-79
2023/09/09 09:12:16;;;;;;;14.07;12.87;;;22.60;99.90;;;;;;10255255;29;20208;-79
2023/09/09 09:17:20;;;;;;;18.83;11.33;;;22.60;99.90;;;;;;10255518;28;20694;-79
2023/09/09 09:22:24;;;;;;;11.27;10.37;;;22.70;99.90;;;;;;10251825;29;20635;-79
2023/09/09 09:27:31;;;;;;;11.00;10.00;;;22.80;99.90;;;;;;10265981;28;20236;-79
2023/09/09 09:32:42;;;;;;;12.00;11.00;;;22.90;99.90;;;;;;10277097;28;20210;-79
2023/09/09 09:37:44;;;;;;;11.50;10.50;;;23.00;99.90;;;;;;10275540;28;20209;-78
2023/09/09 09:42:46;;;;;;;12.47;11.00;;;23.20;99.90;;;;;;10266852;28;20204;-79
2023/09/09 09:47:50;;;;;;;11.43;10.43;;;23.40;99.90;;;;;;10319081;28;20225;-79
2023/09/09 09:52:58;;;;;;;13.70;12.60;;;23.70;99.90;;;;;;10244235;29;20224;-79
2023/09/09 09:58:01;;;;;;;11.70;10.67;;;24.00;99.90;;;;;;10247591;28;20693;-80
2023/09/09 10:03:07;;;;;;;9.43;8.47;;;24.50;99.90;;;;;;10253296;29;20214;-80
2023/09/09 10:08:25;;;;;;;10.30;9.50;;;24.90;99.90;;;;;;10252700;28;20228;-80
2023/09/09 10:13:34;;;;;;;11.80;10.67;;;25.00;99.90;;;;;;10251162;28;20229;-79
2023/09/09 10:18:38;;;;;;;10.63;9.83;;;24.90;99.90;;;;;;10244426;28;20554;-80
2023/09/09 10:23:41;;;;;;;10.00;9.20;;;24.70;99.90;;;;;;10247869;28;20224;-80
2023/09/09 10:28:45;;;;;;;9.03;8.30;;;24.70;99.90;;;;;;10310186;28;20290;-79
2023/09/09 10:33:48;;;;;;;10.00;9.20;;;24.60;99.90;;;;;;10257309;28;20204;-79
2023/09/09 10:38:53;;;;;;;10.87;9.97;;;24.50;99.90;;;;;;10253310;28;20274;-80
2023/09/09 10:43:55;;;;;;;13.50;10.00;;;24.40;99.90;;;;;;10266811;28;20197;-80
2023/09/09 10:49:44;;;;;;;9.90;9.10;;;24.40;99.90;;;;;;10361885;23;20233;-79
2023/09/09 10:55:30;;;;;;;11.20;10.20;;;24.40;99.90;;;;;;10425740;28;20228;-79
2023/09/09 11:01:33;;;;;;;10.57;9.63;;;24.30;99.90;;;;;;10224033;28;20194;-80
2023/09/09 11:07:15;;;;;;;9.60;8.80;;;24.40;99.90;;;;;;10260131;28;20229;-80
2023/09/09 11:18:31;;;;;;;10.33;9.23;;;24.50;99.90;;;;;;10310209;28;20224;-79
2023/09/09 11:23:50;;;;;;;10.57;9.57;;;24.40;99.90;;;;;;10254011;28;20240;-79
2023/09/09 11:29:10;;;;;;;10.87;9.90;;;24.40;99.90;;;;;;10255359;28;20255;-79
2023/09/09 11:34:32;;;;;;;9.90;8.80;;;24.40;99.90;;;;;;10314778;28;20667;-80
2023/09/09 11:39:46;;;;;;;8.30;7.60;;;24.40;99.90;;;;;;10255644;28;20229;-80
2023/09/09 11:50:43;;;;;;;8.83;7.90;;;24.30;99.90;;;;;;10322497;28;20309;-79
2023/09/09 11:55:58;;;;;;;7.13;6.60;;;24.30;99.90;;;;;;10277469;28;20228;-80
2023/09/09 12:01:08;;;;;;;10.07;8.30;;;24.30;99.90;;;;;;10249660;28;20193;-79
2023/09/09 12:06:12;;;;;;;7.60;6.90;;;24.30;99.90;;;;;;10286470;22;20252;-81
2023/09/09 12:11:17;;;;;;;10.83;7.40;;;24.10;99.90;;;;;;10210338;29;20206;-81
2023/09/09 12:16:19;;;;;;;10.10;7.40;;;24.20;99.90;;;;;;10182461;28;20238;-81
2023/09/09 12:21:23;;;;;;;7.77;6.40;;;24.30;99.90;;;;;;10216908;28;20203;-81
2023/09/09 12:26:25;;;;;;;7.73;6.40;;;24.40;99.90;;;;;;10244855;28;20250;-81
2023/09/09 12:31:28;;;;;;;9.77;8.50;;;24.50;99.90;;;;;;10234463;28;20203;-82
2023/09/09 12:36:34;;;;;;;8.47;7.47;;;24.70;99.90;;;;;;10177213;29;20633;-82
2023/09/09 12:41:36;;;;;;;8.90;6.77;;;24.80;99.90;;;;;;10177098;28;20563;-82
2023/09/09 12:46:38;;;;;;;7.30;6.47;;;25.00;99.90;;;;;;10183134;28;20242;-81
2023/09/09 12:51:42;;;;;;;7.40;6.67;;;25.00;99.90;;;;;;10170828;28;20211;-82
2023/09/09 12:56:44;;;;;;;7.10;6.50;;;24.80;99.90;;;;;;10172354;28;20302;-82
2023/09/09 13:01:48;;;;;;;10.73;6.37;;;24.90;99.90;;;;;;10172191;29;20581;-82
2023/09/09 13:06:51;;;;;;;9.30;6.60;;;25.00;99.90;;;;;;10172769;28;20223;-81
2023/09/09 13:11:53;;;;;;;7.70;6.90;;;25.10;99.90;;;;;;10234469;28;20213;-82
2023/09/09 13:16:55;;;;;;;7.60;5.87;;;25.10;99.90;;;;;;10254878;28;20218;-82
2023/09/09 13:22:00;;;;;;;6.30;5.73;;;25.10;99.90;;;;;;10176297;29;20215;-80
2023/09/09 13:27:02;;;;;;;7.10;6.50;;;25.10;99.90;;;;;;10174384;28;20285;-81
2023/09/09 13:32:05;;;;;;;6.93;6.40;;;25.20;99.90;;;;;;10175049;28;20680;-81
2023/09/09 13:37:09;;;;;;;10.10;8.27;;;25.30;99.90;;;;;;10176004;28;20233;-81
2023/09/09 13:42:11;;;;;;;9.37;6.90;;;25.30;99.90;;;;;;10191070;28;20260;-81
2023/09/09 13:47:13;;;;;;;11.93;7.50;;;25.30;99.90;;;;;;10171216;29;20253;-82
2023/09/09 13:52:16;;;;;;;6.63;6.10;;;25.20;99.90;;;;;;10239812;28;20230;-81
2023/09/09 13:57:18;;;;;;;8.00;7.13;;;25.20;99.90;;;;;;10167982;28;20214;-81
2023/09/09 14:02:20;;;;;;;7.93;7.23;;;25.30;99.90;;;;;;10171906;28;20194;-81
2023/09/09 14:07:24;;;;;;;8.30;7.50;;;25.30;99.90;;;;;;10175141;28;20226;-81
2023/09/09 14:12:26;;;;;;;10.70;6.80;;;25.50;99.90;;;;;;10175955;29;20219;-81
2023/09/09 14:17:28;;;;;;;6.83;6.20;;;25.50;99.90;;;;;;10187416;28;20330;-82
2023/09/09 14:22:31;;;;;;;9.63;7.63;;;25.60;99.90;;;;;;10238869;28;20213;-81
2023/09/09 14:27:33;;;;;;;8.40;7.07;;;25.70;99.90;;;;;;10176631;28;20375;-82
2023/09/09 14:32:35;;;;;;;7.30;6.70;;;25.80;99.90;;;;;;10239392;28;20195;-82
2023/09/09 14:37:39;;;;;;;7.57;6.77;;;25.90;99.90;;;;;;10217094;28;20214;-81
2023/09/09 14:42:41;;;;;;;8.27;7.00;;;25.80;99.90;;;;;;10231188;28;20207;-81
2023/09/09 14:47:44;;;;;;;8.13;7.43;;;25.80;99.90;;;;;;10257019;28;20227;-82
2023/09/09 14:52:47;;;;;;;7.93;7.33;;;25.80;99.90;;;;;;10196308;29;20202;-82
2023/09/09 14:57:49;;;;;;;8.20;7.00;;;26.10;99.90;;;;;;10200063;28;20246;-82
2023/09/09 15:02:51;;;;;;;12.90;6.90;;;26.30;99.90;;;;;;10169867;28;20195;-81
2023/09/09 15:07:55;;;;;;;8.57;7.77;;;26.10;99.90;;;;;;10171142;28;20227;-82
2023/09/09 15:12:57;;;;;;;8.10;7.30;;;26.00;99.90;;;;;;10171547;28;20200;-82
2023/09/09 15:17:59;;;;;;;8.37;7.67;;;25.90;99.90;;;;;;10188360;28;20899;-83
2023/09/09 15:23:03;;;;;;;6.60;6.10;;;26.10;99.90;;;;;;10181183;29;20203;-83
2023/09/09 15:28:06;;;;;;;6.90;6.40;;;26.10;99.90;;;;;;10182699;28;20235;-82
2023/09/09 15:33:08;;;;;;;10.07;7.90;;;26.10;99.90;;;;;;10182462;28;20202;-82
2023/09/09 15:38:11;;;;;;;8.67;6.97;;;26.00;99.90;;;;;;10182245;29;20684;-82
2023/09/09 15:43:13;;;;;;;8.07;7.30;;;25.90;99.90;;;;;;10229989;28;20241;-82
2023/09/09 15:48:16;;;;;;;7.50;6.77;;;25.90;99.90;;;;;;10181033;28;20294;-82
2023/09/09 15:53:19;;;;;;;7.60;6.90;;;25.90;99.90;;;;;;10244601;28;20294;-83
2023/09/09 15:58:22;;;;;;;7.67;6.53;;;25.90;99.90;;;;;;10249073;28;20223;-83
2023/09/09 16:03:24;;;;;;;13.33;7.60;;;25.90;99.90;;;;;;10180394;28;20207;-83
2023/09/09 16:08:27;;;;;;;7.70;6.67;;;25.90;99.90;;;;;;10179582;29;20588;-83
2023/09/09 16:13:29;;;;;;;7.30;6.60;;;25.80;99.90;;;;;;10181839;29;20205;-83
2023/09/09 16:18:32;;;;;;;11.80;6.40;;;25.80;99.90;;;;;;10189703;29;20320;-83
2023/09/09 16:23:35;;;;;;;8.50;6.83;;;25.80;99.90;;;;;;10182766;28;20253;-83
2023/09/09 16:28:39;;;;;;;8.20;6.70;;;25.80;99.90;;;;;;10179676;28;20234;-82
2023/09/09 16:33:41;;;;;;;9.70;8.23;;;25.70;99.90;;;;;;10179613;28;20211;-82
2023/09/09 16:38:44;;;;;;;7.70;7.00;;;25.60;99.90;;;;;;10191416;29;20219;-82
2023/09/09 16:43:46;;;;;;;8.53;7.80;;;25.50;99.90;;;;;;10236342;28;20211;-83
2023/09/09 16:48:48;;;;;;;11.23;8.57;;;25.30;99.90;;;;;;10176057;28;20268;-81
2023/09/09 16:53:52;;;;;;;7.10;6.40;;;25.20;99.90;;;;;;10174378;28;20199;-82
2023/09/09 16:58:54;;;;;;;10.50;6.30;;;25.10;99.90;;;;;;10189451;28;20257;-82
2023/09/09 17:03:56;;;;;;;7.50;6.90;;;25.10;99.90;;;;;;10173730;28;20194;-83
2023/09/09 17:08:59;;;;;;;15.47;6.87;;;25.10;99.90;;;;;;10173998;29;20281;-83
2023/09/09 17:14:01;;;;;;;10.30;6.90;;;25.10;99.90;;;;;;10174490;28;20258;-83
2023/09/09 17:19:03;;;;;;;10.83;7.30;;;25.10;99.90;;;;;;10175365;29;20218;-83
2023/09/09 17:24:08;;;;;;;8.07;7.27;;;24.90;99.90;;;;;;10237154;28;20214;-83
2023/09/09 17:29:10;;;;;;;7.40;6.67;;;24.80;99.90;;;;;;10174973;28;20252;-83
2023/09/09 17:34:12;;;;;;;7.97;7.17;;;24.90;99.90;;;;;;10179262;28;20203;-82
2023/09/09 17:39:16;;;;;;;11.93;7.53;;;24.90;99.90;;;;;;10186000;29;20214;-82
2023/09/09 17:44:18;;;;;;;7.73;6.93;;;24.90;99.90;;;;;;10191993;29;20240;-82
2023/09/09 17:49:22;;;;;;;8.30;7.60;;;24.90;99.90;;;;;;10185584;28;20250;-82
2023/09/09 17:54:25;;;;;;;7.73;7.03;;;24.80;99.90;;;;;;10180079;28;20207;-82
2023/09/09 17:59:27;;;;;;;8.23;7.43;;;24.70;99.90;;;;;;10181421;28;20225;-82
2023/09/09 18:04:29;;;;;;;8.33;7.60;;;24.60;99.90;;;;;;10243599;28;20290;-82
2023/09/09 18:09:33;;;;;;;7.10;6.60;;;24.50;99.90;;;;;;10206766;22;20336;-80
2023/09/09 18:14:35;;;;;;;7.67;6.97;;;24.40;99.90;;;;;;10258973;28;20623;-79
2023/09/09 18:19:37;;;;;;;9.00;6.50;;;24.30;99.90;;;;;;10204452;28;20222;-79
2023/09/09 18:24:41;;;;;;;7.43;6.50;;;24.20;99.90;;;;;;10203280;28;20252;-78
2023/09/09 18:29:43;;;;;;;8.30;7.70;;;24.10;99.90;;;;;;10271150;28;20647;-80
2023/09/09 18:34:47;;;;;;;8.30;7.50;;;24.00;99.90;;;;;;10207357;28;20762;-79
2023/09/09 18:39:50;;;;;;;7.50;6.90;;;24.00;99.90;;;;;;10204484;28;20226;-79
2023/09/09 18:44:52;;;;;;;8.30;7.50;;;23.90;99.90;;;;;;10205996;28;20233;-78
2023/09/09 18:49:54;;;;;;;7.83;7.20;;;23.80;99.90;;;;;;10292229;28;20233;-78
2023/09/09 18:54:58;;;;;;;8.10;7.30;;;23.80;99.90;;;;;;10294964;28;20939;-78
2023/09/09 19:00:00;;;;;;;7.83;7.10;;;23.80;99.90;;;;;;10214911;28;20735;-79
2023/09/09 19:05:02;;;;;;;7.90;7.10;;;23.80;99.90;;;;;;10214067;28;20198;-78
2023/09/09 19:10:07;;;;;;;8.93;7.60;;;23.70;99.90;;;;;;10212842;29;20702;-78
2023/09/09 19:15:12;;;;;;;9.20;8.30;;;23.60;99.90;;;;;;10215502;28;20218;-78
2023/09/09 19:20:14;;;;;;;10.43;7.63;;;23.60;99.90;;;;;;10212376;29;20237;-79
2023/09/09 19:25:17;;;;;;;8.50;7.80;;;23.60;99.90;;;;;;10211758;29;20202;-79
2023/09/09 19:30:20;;;;;;;8.60;7.90;;;23.50;99.90;;;;;;10281504;28;20268;-78
2023/09/09 19:35:22;;;;;;;9.90;8.20;;;23.40;99.90;;;;;;10303190;28;20224;-78
2023/09/09 19:40:26;;;;;;;9.97;8.40;;;23.40;99.90;;;;;;10215312;28;20207;-79
2023/09/09 19:45:28;;;;;;;8.47;7.67;;;23.40;99.90;;;;;;10283648;28;20194;-78
2023/09/09 19:50:31;;;;;;;9.70;8.13;;;23.40;99.90;;;;;;10211038;29;20563;-79
2023/09/09 19:55:34;;;;;;;9.17;8.00;;;23.30;99.90;;;;;;10194038;29;20202;-79
2023/09/09 20:00:39;;;;;;;10.40;8.20;;;23.30;99.90;;;;;;10264768;28;20214;-79
2023/09/09 20:05:42;;;;;;;8.60;7.70;;;23.20;99.90;;;;;;10201717;29;20629;-79
2023/09/09 20:10:45;;;;;;;8.93;7.73;;;23.20;99.90;;;;;;10203851;28;20219;-79
2023/09/09 20:15:51;;;;;;;8.60;7.90;;;23.20;99.90;;;;;;10277021;28;20227;-78
2023/09/09 20:20:54;;;;;;;9.37;8.37;;;23.20;99.90;;;;;;10198852;28;20236;-78
2023/09/09 20:25:57;;;;;;;8.50;7.70;;;23.10;99.90;;;;;;10191756;28;20317;-79
2023/09/09 20:31:00;;;;;;;9.20;7.80;;;23.10;99.90;;;;;;10280278;28;20230;-79
2023/09/09 20:36:04;;;;;;;9.30;8.27;;;23.10;99.90;;;;;;10207421;28;20733;-78
2023/09/09 20:41:08;;;;;;;12.50;8.63;;;23.00;99.90;;;;;;10204501;28;20249;-78
2023/09/09 20:46:10;;;;;;;9.10;8.30;;;23.00;99.90;;;;;;10206780;28;20214;-79
2023/09/09 20:51:12;;;;;;;11.50;7.90;;;23.00;99.90;;;;;;10198347;28;20241;-79
2023/09/09 20:56:16;;;;;;;9.83;8.10;;;22.90;99.90;;;;;;10204563;28;20202;-78
2023/09/09 21:01:18;;;;;;;9.10;8.17;;;22.90;99.90;;;;;;10288372;28;20256;-79
2023/09/09 21:06:20;;;;;;;11.50;7.43;;;22.80;99.90;;;;;;10210788;28;20198;-79
2023/09/09 21:11:24;;;;;;;9.20;8.30;;;22.80;99.90;;;;;;10209680;28;20770;-79
2023/09/09 21:16:26;;;;;;;12.93;8.07;;;22.80;99.90;;;;;;10287131;28;20252;-78
2023/09/09 21:21:28;;;;;;;8.20;7.50;;;22.70;99.90;;;;;;10200050;28;20228;-79
2023/09/09 21:26:32;;;;;;;9.60;8.67;;;22.70;99.90;;;;;;10275152;28;20202;-80
2023/09/09 21:31:34;;;;;;;10.63;8.50;;;22.70;99.90;;;;;;10219105;28;20609;-79
2023/09/09 21:36:36;;;;;;;8.90;8.03;;;22.70;99.90;;;;;;10209125;28;20206;-80
2023/09/09 21:41:39;;;;;;;9.00;8.20;;;22.70;99.90;;;;;;10209583;29;20256;-79
2023/09/09 21:46:41;;;;;;;9.90;9.00;;;22.60;99.90;;;;;;10209083;29;20666;-79
2023/09/09 21:51:45;;;;;;;9.47;8.00;;;22.60;99.90;;;;;;10214780;28;20785;-79
2023/09/09 21:56:48;;;;;;;9.97;9.00;;;22.60;99.90;;;;;;10201848;28;20194;-79
2023/09/09 22:01:51;;;;;;;11.70;9.00;;;22.50;99.90;;;;;;10206188;29;20194;-79
2023/09/09 22:06:53;;;;;;;9.83;7.93;;;22.50;99.90;;;;;;10268361;28;20226;-79
2023/09/09 22:11:57;;;;;;;10.80;8.90;;;22.50;99.90;;;;;;10211793;29;20222;-79
2023/09/09 22:17:00;;;;;;;9.10;8.30;;;22.40;99.90;;;;;;10209383;28;20241;-78
2023/09/09 22:22:02;;;;;;;9.43;8.53;;;22.40;99.90;;;;;;10208067;28;20194;-79
2023/09/09 22:27:06;;;;;;;11.80;8.40;;;22.30;99.90;;;;;;10212888;29;20221;-79
2023/09/09 22:32:08;;;;;;;8.53;7.67;;;22.30;99.90;;;;;;10215660;29;20569;-80
2023/09/09 22:37:10;;;;;;;9.13;7.90;;;22.30;99.90;;;;;;10273617;28;20222;-78
2023/09/09 22:42:13;;;;;;;9.87;8.00;;;22.30;99.90;;;;;;10200166;29;20262;-79
2023/09/09 22:47:16;;;;;;;8.80;7.90;;;22.20;99.90;;;;;;10244364;28;20284;-79
2023/09/09 22:52:18;;;;;;;9.10;8.20;;;22.20;99.90;;;;;;10280534;28;20228;-80
2023/09/09 22:57:21;;;;;;;8.57;7.77;;;22.20;99.90;;;;;;10259602;28;20226;-79
2023/09/09 23:02:23;;;;;;;10.23;9.30;;;22.10;99.90;;;;;;10280847;28;20198;-79
2023/09/09 23:07:26;;;;;;;9.23;8.30;;;22.10;99.90;;;;;;10267958;28;20326;-79
2023/09/09 23:12:31;;;;;;;9.07;8.03;;;22.00;99.90;;;;;;10268663;28;20218;-80
2023/09/09 23:17:33;;;;;;;9.30;8.50;;;22.00;99.90;;;;;;10289388;28;20282;-78
2023/09/09 23:22:35;;;;;;;10.83;8.77;;;22.00;99.90;;;;;;10255950;28;20206;-80
2023/09/09 23:27:39;;;;;;;9.00;8.13;;;22.00;99.90;;;;;;10225052;28;20249;-79
2023/09/09 23:32:41;;;;;;;11.67;8.60;;;22.00;99.90;;;;;;10225464;28;20222;-78
2023/09/09 23:37:43;;;;;;;9.83;8.93;;;21.90;99.90;;;;;;10212715;28;20222;-78
2023/09/09 23:42:47;;;;;;;9.20;8.40;;;21.90;99.90;;;;;;10212246;29;20202;-79
2023/09/09 23:47:49;;;;;;;9.53;8.63;;;21.90;99.90;;;;;;10243717;28;20230;-78
2023/09/09 23:52:51;;;;;;;9.63;8.73;;;21.90;99.90;;;;;;10213253;28;20234;-78
2023/09/09 23:57:55;;;;;;;10.80;9.67;;;21.90;99.90;;;;;;10212983;28;20233;-79
